Time,TemperatureF,DewpointF,PressureIn,WindDirection,WindDirectionDegrees,WindSpeedMPH,WindSpeedGustMPH,Humidity,HourlyPrecipIn,Conditions,Clouds,dailyrainin,SoftwareType,DateUTC
2013-10-10 00:12:00,59.0,47.0,-100.00,North,-999,-999.0,-999.0,65,0.00,,,-99.99,,2013-10-10 05:12:00,
2013-10-10 00:22:00,59.0,47.0,-100.00,North,-999,-999.0,-999.0,64,0.00,,,-99.99,,2013-10-10 05:22:00,
2013-10-10 00:43:00,59.0,47.0,-100.00,North,-999,-999.0,-999.0,65,0.00,,,-99.99,,2013-10-10 05:43:00,
2013-10-10 02:21:00,55.0,48.0,-100.00,North,-999,-999.0,-999.0,78,0.00,,,-99.99,,2013-10-10 07:21:00,
2013-10-10 02:42:00,55.0,48.0,-100.00,North,-999,-999.0,-999.0,76,0.00,,,-99.99,,2013-10-10 07:42:00,
2013-10-10 03:22:00,54.0,48.0,-100.00,North,-999,-999.0,-999.0,79,0.00,,,-99.99,,2013-10-10 08:22:00,
2013-10-10 05:23:00,53.0,53.0,-100.00,North,-999,-999.0,-999.0,98,0.00,,,-99.99,,2013-10-10 10:23:00,
2013-10-10 06:22:00,53.0,-99.9,-100.00,North,-999,-999.0,-999.0,-999,0.00,,,-99.99,,2013-10-10 11:22:00,
2013-10-10 06:43:00,52.0,-99.9,-100.00,North,-999,-999.0,-999.0,-999,0.00,,,-99.99,,2013-10-10 11:43:00,
2013-10-10 09:22:00,55.0,-99.9,-100.00,North,-999,-999.0,-999.0,-999,0.00,,,-99.99,,2013-10-10 14:22:00,
2013-10-10 09:42:00,56.0,56.0,-100.00,North,-999,-999.0,-999.0,97,0.00,,,-99.99,,2013-10-10 14:42:00,
2013-10-10 10:22:00,61.0,56.0,-100.00,North,-999,-999.0,-999.0,86,0.00,,,-99.99,,2013-10-10 15:22:00,
2013-10-10 10:43:00,63.0,55.0,-100.00,North,-999,-999.0,-999.0,74,0.00,,,-99.99,,2013-10-10 15:43:00,
2013-10-10 11:23:00,67.0,54.0,-100.00,North,-999,-999.0,-999.0,64,0.00,,,-99.99,,2013-10-10 16:23:00,
2013-10-10 11:42:00,69.0,54.0,-100.00,North,-999,-999.0,-999.0,60,0.00,,,-99.99,,2013-10-10 16:42:00,
2013-10-10 12:23:00,72.0,55.0,-100.00,North,-999,-999.0,-999.0,54,0.00,,,-99.99,,2013-10-10 17:23:00,
2013-10-10 12:42:00,73.0,54.0,-100.00,North,-999,-999.0,-999.0,52,0.00,,,-99.99,,2013-10-10 17:42:00,
2013-10-10 13:21:00,75.0,54.0,-100.00,North,-999,-999.0,-999.0,49,0.00,,,-99.99,,2013-10-10 18:21:00,
2013-10-10 13:42:00,76.0,53.0,-100.00,North,-999,-999.0,-999.0,45,0.00,,,-99.99,,2013-10-10 18:42:00,
2013-10-10 14:22:00,77.0,52.0,-100.00,North,-999,-999.0,-999.0,42,0.00,,,-99.99,,2013-10-10 19:22:00,
2013-10-10 14:42:00,77.0,50.0,-100.00,North,-999,-999.0,-999.0,38,0.00,,,-99.99,,2013-10-10 19:42:00,
2013-10-10 15:22:00,78.0,48.0,-100.00,North,-999,-999.0,-999.0,35,0.00,,,-99.99,,2013-10-10 20:22:00,
2013-10-10 15:42:00,78.0,50.0,-100.00,North,-999,-999.0,-999.0,37,0.00,,,-99.99,,2013-10-10 20:42:00,
2013-10-10 16:22:00,78.0,49.0,-100.00,North,-999,-999.0,-999.0,35,0.00,,,-99.99,,2013-10-10 21:22:00,
2013-10-10 16:43:00,78.0,49.0,-100.00,North,-999,-999.0,-999.0,35,0.00,,,-99.99,,2013-10-10 21:43:00,
2013-10-10 17:24:00,78.0,49.0,-100.00,North,-999,-999.0,-999.0,36,0.00,,,-99.99,,2013-10-10 22:24:00,
2013-10-10 17:43:00,76.0,50.0,-100.00,North,-999,-999.0,-999.0,39,0.00,,,-99.99,,2013-10-10 22:43:00,
2013-10-10 18:23:00,75.0,50.0,-100.00,North,-999,-999.0,-999.0,41,0.00,,,-99.99,,2013-10-10 23:23:00,
2013-10-10 18:43:00,74.0,51.0,-100.00,North,-999,-999.0,-999.0,43,0.00,,,-99.99,,2013-10-10 23:43:00,
2013-10-10 20:21:00,68.0,52.0,-100.00,North,-999,-999.0,-999.0,55,0.00,,,-99.99,,2013-10-11 01:21:00,
2013-10-10 21:42:00,66.0,53.0,-100.00,North,-999,-999.0,-999.0,62,0.00,,,-99.99,,2013-10-11 02:42:00,